createdAt,value
2022-10-07T00:01:11.999Z,61.02
2022-10-07T00:03:40.558Z,60.91
2022-10-07T00:06:13.594Z,61.06
2022-10-07T00:08:43.765Z,61.18
2022-10-07T00:11:27.130Z,61.04
2022-10-07T00:13:58.332Z,61.10
2022-10-07T00:16:30.404Z,61.02
2022-10-07T00:19:00.756Z,61.08
2022-10-07T00:21:31.404Z,61.23
2022-10-07T00:24:00.100Z,61.16
2022-10-07T00:26:30.205Z,61.45
2022-10-07T00:28:58.626Z,61.50
2022-10-07T00:31:32.830Z,61.52
2022-10-07T00:34:03.624Z,61.50
2022-10-07T00:36:35.239Z,61.73
2022-10-07T00:39:06.999Z,61.76
2022-10-07T00:41:41.956Z,61.70
2022-10-07T00:44:30.154Z,61.83
2022-10-07T00:47:19.597Z,61.87
2022-10-07T00:49:54.536Z,61.94
2022-10-07T00:52:26.541Z,61.91
2022-10-07T00:54:56.408Z,62.09
2022-10-07T00:57:50.061Z,62.27
2022-10-07T01:00:18.028Z,62.30
2022-10-07T01:02:46.393Z,62.40
2022-10-07T01:05:14.439Z,62.46
2022-10-07T01:07:47.948Z,62.48
2022-10-07T01:10:20.464Z,62.73
2022-10-07T01:13:09.612Z,62.84
2022-10-07T01:15:49.956Z,62.80
2022-10-07T01:18:25.868Z,63.02
2022-10-07T01:21:14.103Z,63.00
2022-10-07T01:23:53.219Z,63.07
2022-10-07T01:26:46.890Z,63.19
2022-10-07T01:29:21.853Z,63.20
2022-10-07T01:32:34.614Z,63.35
2022-10-07T01:35:28.358Z,63.34
2022-10-07T01:38:00.762Z,63.67
2022-10-07T01:40:35.732Z,63.47
2022-10-07T01:43:03.812Z,63.54
2022-10-07T01:45:35.469Z,63.60
2022-10-07T01:48:04.290Z,63.75
2022-10-07T01:50:34.103Z,63.97
2022-10-07T01:53:29.992Z,63.97
2022-10-07T01:56:00.972Z,63.95
2022-10-07T01:59:09.442Z,63.95
2022-10-07T02:01:40.346Z,64.11
2022-10-07T02:04:36.419Z,64.18
2022-10-07T02:07:17.700Z,64.28
2022-10-07T02:09:59.261Z,64.41
2022-10-07T02:12:32.893Z,64.09
2022-10-07T02:15:43.106Z,64.34
2022-10-07T02:18:15.529Z,64.47
2022-10-07T02:20:48.912Z,64.56
2022-10-07T02:23:21.317Z,64.61
2022-10-07T02:25:51.033Z,64.49
2022-10-07T02:28:24.374Z,64.70
2022-10-07T02:31:00.862Z,64.86
2022-10-07T02:33:31.352Z,64.90
2022-10-07T02:36:08.246Z,64.74
2022-10-07T02:38:36.094Z,64.93
2022-10-07T02:41:31.575Z,64.86
2022-10-07T02:44:27.137Z,65.15
2022-10-07T02:47:16.916Z,64.97
2022-10-07T02:49:50.443Z,65.00
2022-10-07T02:52:20.376Z,64.90
2022-10-07T02:55:00.112Z,64.75
2022-10-07T02:57:33.665Z,64.85
2022-10-07T03:00:07.358Z,64.95
2022-10-07T03:02:54.544Z,65.10
2022-10-07T03:05:26.619Z,64.91
2022-10-07T03:08:01.822Z,65.19
2022-10-07T03:10:30.025Z,65.29
2022-10-07T03:12:58.087Z,65.37
2022-10-07T03:15:27.589Z,65.23
2022-10-07T03:17:56.530Z,65.28
2022-10-07T03:20:24.648Z,65.43
2022-10-07T03:22:53.633Z,65.46
2022-10-07T03:25:21.443Z,65.46
2022-10-07T03:27:50.129Z,65.50
2022-10-07T03:30:24.139Z,65.40
2022-10-07T03:32:55.219Z,65.53
2022-10-07T03:35:23.781Z,65.56
2022-10-07T03:37:54.363Z,65.57
2022-10-07T03:40:22.305Z,65.52
2022-10-07T03:42:50.605Z,65.57
2022-10-07T03:45:20.982Z,65.64
2022-10-07T03:47:49.334Z,65.83
2022-10-07T03:50:17.134Z,65.64
2022-10-07T03:52:48.694Z,65.67
2022-10-07T03:55:16.773Z,65.73
2022-10-07T03:57:51.300Z,65.54
2022-10-07T04:00:25.352Z,65.71
2022-10-07T04:02:56.610Z,65.79
2022-10-07T04:05:25.284Z,65.66
2022-10-07T04:07:53.333Z,65.68
2022-10-07T04:10:22.070Z,65.63
2022-10-07T04:12:52.445Z,65.68
2022-10-07T04:15:21.107Z,65.80
2022-10-07T04:17:50.181Z,65.76
2022-10-07T04:20:20.064Z,65.91
2022-10-07T04:22:47.807Z,65.70
2022-10-07T04:25:34.428Z,65.79
2022-10-07T04:28:16.119Z,65.83
2022-10-07T04:30:51.272Z,66.02
2022-10-07T04:33:24.283Z,65.91
2022-10-07T04:35:55.079Z,65.99
2022-10-07T04:38:28.085Z,65.96
2022-10-07T04:41:48.296Z,65.93
2022-10-07T04:44:21.479Z,65.72
2022-10-07T04:47:06.230Z,65.76
2022-10-07T04:49:39.614Z,65.79
2022-10-07T04:52:09.911Z,65.81
2022-10-07T04:54:40.208Z,65.83
2022-10-07T04:57:10.285Z,65.84
2022-10-07T04:59:42.590Z,66.03
2022-10-07T05:02:13.257Z,66.06
2022-10-07T05:04:41.006Z,65.98
2022-10-07T05:07:10.187Z,65.95
2022-10-07T05:09:41.686Z,65.75
2022-10-07T05:12:09.352Z,65.92
2022-10-07T05:14:37.277Z,66.08
2022-10-07T05:17:05.484Z,66.10
2022-10-07T05:19:35.937Z,65.91
2022-10-07T05:22:04.316Z,65.86
2022-10-07T05:24:32.615Z,65.94
2022-10-07T05:27:01.459Z,65.73
2022-10-07T05:29:29.503Z,65.80
2022-10-07T05:32:03.729Z,65.85
2022-10-07T05:34:33.288Z,65.85
2022-10-07T05:37:01.521Z,65.63
2022-10-07T05:39:29.264Z,65.81
2022-10-07T05:42:04.670Z,65.65
2022-10-07T05:44:38.755Z,65.67
2022-10-07T05:47:07.350Z,65.64
2022-10-07T05:49:36.268Z,65.55
2022-10-07T05:52:05.161Z,65.48
2022-10-07T05:54:34.173Z,65.00
2022-10-07T05:57:03.406Z,65.23
2022-10-07T05:59:31.541Z,64.76
2022-10-07T06:02:01.091Z,64.71
2022-10-07T06:04:29.916Z,64.53
2022-10-07T06:06:57.666Z,64.32
2022-10-07T06:09:44.069Z,63.98
2022-10-07T06:12:34.567Z,63.88
2022-10-07T06:15:09.726Z,63.89
2022-10-07T06:17:44.444Z,63.57
2022-10-07T06:20:15.277Z,63.28
2022-10-07T06:22:44.484Z,63.28
2022-10-07T06:25:14.181Z,62.88
2022-10-07T06:27:42.974Z,62.32
2022-10-07T06:30:13.249Z,62.40
2022-10-07T06:32:40.956Z,62.14
2022-10-07T06:35:09.316Z,61.90
2022-10-07T06:37:39.369Z,61.65
2022-10-07T06:40:12.143Z,61.42
2022-10-07T06:42:40.554Z,61.20
2022-10-07T06:45:26.832Z,60.95
2022-10-07T06:47:55.002Z,60.67
2022-10-07T06:50:24.587Z,60.65
2022-10-07T06:52:53.262Z,60.29
2022-10-07T06:55:21.440Z,60.14
2022-10-07T06:57:49.291Z,60.08
2022-10-07T07:00:19.990Z,59.36
2022-10-07T07:02:48.728Z,59.17
2022-10-07T07:05:16.902Z,58.99
2022-10-07T07:07:46.995Z,58.96
2022-10-07T07:10:15.234Z,58.96
2022-10-07T07:12:47.841Z,58.36
2022-10-07T07:15:16.125Z,57.73
2022-10-07T07:17:44.366Z,57.32
2022-10-07T07:20:13.600Z,57.15
2022-10-07T07:22:43.386Z,57.18
2022-10-07T07:25:12.006Z,56.99
2022-10-07T07:27:40.165Z,56.62
2022-10-07T07:30:10.378Z,56.47
2022-10-07T07:32:38.065Z,55.68
2022-10-07T07:35:07.207Z,55.14
2022-10-07T07:37:34.924Z,55.21
2022-10-07T07:40:03.831Z,55.19
2022-10-07T07:42:33.388Z,54.88
2022-10-07T07:45:01.393Z,54.56
2022-10-07T07:47:29.959Z,54.59
2022-10-07T07:49:57.925Z,54.34
2022-10-07T07:52:30.489Z,54.26
2022-10-07T07:55:00.160Z,54.35
2022-10-07T07:57:28.451Z,53.69
2022-10-07T07:59:59.133Z,53.35
2022-10-07T08:02:27.979Z,52.99
2022-10-07T08:04:55.740Z,52.79
2022-10-07T08:07:25.017Z,52.65
2022-10-07T08:09:52.671Z,52.69
2022-10-07T08:12:22.279Z,52.44
2022-10-07T08:14:52.655Z,52.26
2022-10-07T08:17:20.648Z,52.20
2022-10-07T08:19:48.429Z,52.05
2022-10-07T08:22:17.912Z,51.69
2022-10-07T08:24:48.670Z,51.61
2022-10-07T08:27:19.358Z,51.53
2022-10-07T08:29:47.127Z,51.32
2022-10-07T08:32:14.987Z,50.97
2022-10-07T08:34:42.699Z,50.67
2022-10-07T08:37:35.339Z,50.72
2022-10-07T08:40:03.281Z,50.52
2022-10-07T08:42:37.764Z,50.60
2022-10-07T08:45:15.601Z,50.14
2022-10-07T08:47:47.536Z,50.18
2022-10-07T08:50:27.841Z,50.02
2022-10-07T08:53:05.148Z,49.55
2022-10-07T08:55:41.246Z,49.71
2022-10-07T08:58:34.782Z,49.54
2022-10-07T09:01:24.805Z,49.13
2022-10-07T09:04:20.694Z,49.58
2022-10-07T09:07:17.599Z,49.26
2022-10-07T09:09:55.145Z,48.51
2022-10-07T09:12:49.219Z,48.37
2022-10-07T09:15:52.019Z,48.51
2022-10-07T09:18:24.840Z,47.99
2022-10-07T09:20:55.637Z,48.05
2022-10-07T09:23:28.906Z,48.20
2022-10-07T09:25:56.993Z,47.84
2022-10-07T09:28:30.532Z,47.66
2022-10-07T09:31:00.083Z,47.38
2022-10-07T09:33:29.986Z,47.41
2022-10-07T09:36:09.905Z,47.22
2022-10-07T09:38:40.781Z,47.51
2022-10-07T09:41:20.034Z,47.24
2022-10-07T09:44:01.904Z,46.99
2022-10-07T09:47:12.778Z,46.93
2022-10-07T09:49:45.507Z,46.92
2022-10-07T09:52:14.838Z,46.11
2022-10-07T09:54:44.578Z,45.00
2022-10-07T09:57:34.881Z,44.21
2022-10-07T10:00:23.620Z,43.38
2022-10-07T10:03:05.609Z,43.57
2022-10-07T10:06:00.595Z,43.06
2022-10-07T10:08:34.457Z,43.79
2022-10-07T10:11:26.222Z,43.53
2022-10-07T10:13:54.514Z,43.39
2022-10-07T10:16:25.338Z,43.04
2022-10-07T10:19:23.137Z,43.56
2022-10-07T10:21:58.227Z,43.70
2022-10-07T10:24:48.894Z,43.23
2022-10-07T10:27:23.439Z,43.40
2022-10-07T10:30:04.554Z,42.86
2022-10-07T10:32:54.073Z,43.09
2022-10-07T10:35:49.662Z,42.90
2022-10-07T10:38:33.415Z,42.44
2022-10-07T10:41:21.653Z,42.91
2022-10-07T10:44:17.962Z,42.82
2022-10-07T10:47:17.487Z,42.49
2022-10-07T10:49:48.164Z,42.09
2022-10-07T10:52:26.094Z,41.88
2022-10-07T10:55:33.528Z,41.90
2022-10-07T10:58:25.135Z,41.86
2022-10-07T11:01:14.164Z,42.16
2022-10-07T11:03:59.259Z,40.95
2022-10-07T11:06:31.075Z,41.11
2022-10-07T11:09:00.548Z,41.55
2022-10-07T11:11:29.358Z,41.58
2022-10-07T11:14:20.908Z,41.39
2022-10-07T11:16:56.888Z,41.11
2022-10-07T11:19:43.528Z,40.81
2022-10-07T11:22:19.231Z,40.56
2022-10-07T11:24:57.079Z,40.69
2022-10-07T11:27:29.741Z,40.46
2022-10-07T11:30:08.090Z,40.56
2022-10-07T11:32:49.389Z,40.64
2022-10-07T11:35:31.570Z,40.49
2022-10-07T11:38:13.075Z,40.47
2022-10-07T11:40:49.620Z,41.49
2022-10-07T11:43:30.901Z,40.30
2022-10-07T11:46:11.165Z,39.92
2022-10-07T11:48:45.576Z,39.96
2022-10-07T11:51:22.896Z,40.14
2022-10-07T11:53:54.514Z,39.88
2022-10-07T11:56:26.389Z,40.09
2022-10-07T11:59:02.226Z,40.07
2022-10-07T12:01:41.477Z,39.86
2022-10-07T12:04:22.378Z,40.24
2022-10-07T12:07:27.521Z,40.02
2022-10-07T12:10:04.202Z,40.12
2022-10-07T12:12:45.755Z,40.62
2022-10-07T12:15:43.693Z,40.86
2022-10-07T12:18:17.613Z,40.99
2022-10-07T12:20:51.339Z,41.29
2022-10-07T12:23:19.196Z,41.47
2022-10-07T12:26:26.288Z,41.50
2022-10-07T12:28:55.929Z,41.40
2022-10-07T12:31:23.623Z,41.57
2022-10-07T12:34:10.393Z,41.11
2022-10-07T12:36:41.451Z,41.79
2022-10-07T12:39:09.915Z,41.88
2022-10-07T12:41:40.438Z,41.61
2022-10-07T12:44:23.174Z,41.93
2022-10-07T12:46:57.355Z,42.29
2022-10-07T12:49:36.791Z,42.07
2022-10-07T12:52:12.355Z,42.19
2022-10-07T12:55:03.110Z,42.18
2022-10-07T12:57:37.551Z,42.54
2022-10-07T13:00:18.386Z,42.53
2022-10-07T13:02:58.154Z,42.96
2022-10-07T13:05:34.933Z,42.74
2022-10-07T13:08:21.304Z,42.95
2022-10-07T13:11:20.872Z,43.35
2022-10-07T13:14:17.323Z,43.25
2022-10-07T13:17:01.908Z,42.59
2022-10-07T13:20:00.579Z,42.73
2022-10-07T13:22:28.914Z,42.77
2022-10-07T13:24:58.399Z,42.71
2022-10-07T13:27:31.368Z,42.44
2022-10-07T13:30:01.612Z,42.84
2022-10-07T13:32:34.502Z,43.37
2022-10-07T13:35:34.063Z,43.53
2022-10-07T13:38:04.082Z,43.58
2022-10-07T13:40:35.900Z,43.37
2022-10-07T13:43:09.635Z,43.41
2022-10-07T13:45:46.234Z,43.40
2022-10-07T13:48:21.207Z,43.73
2022-10-07T13:50:50.927Z,43.60
2022-10-07T13:53:23.201Z,43.60
2022-10-07T13:55:51.133Z,43.98
2022-10-07T13:58:19.995Z,44.19
2022-10-07T14:00:49.147Z,43.76
2022-10-07T14:03:18.333Z,44.05
2022-10-07T14:05:49.365Z,43.81
2022-10-07T14:08:28.155Z,44.11
2022-10-07T14:11:03.618Z,44.10
2022-10-07T14:13:33.503Z,44.44
2022-10-07T14:16:01.542Z,44.28
2022-10-07T14:18:31.508Z,44.48
2022-10-07T14:21:13.218Z,44.47
2022-10-07T14:23:41.190Z,44.71
2022-10-07T14:26:11.291Z,45.20
2022-10-07T14:28:40.311Z,45.70
2022-10-07T14:31:29.318Z,45.40
2022-10-07T14:34:15.692Z,45.84
2022-10-07T14:37:09.606Z,46.20
2022-10-07T14:39:48.771Z,46.29
2022-10-07T14:42:21.915Z,46.68
2022-10-07T14:44:50.581Z,46.83
2022-10-07T14:47:24.950Z,47.11
2022-10-07T14:49:53.858Z,47.16
2022-10-07T14:52:31.360Z,47.57
2022-10-07T14:55:03.426Z,47.38
2022-10-07T14:57:31.349Z,47.90
2022-10-07T14:59:59.034Z,47.84
2022-10-07T15:02:27.646Z,47.85
2022-10-07T15:04:55.472Z,48.14
2022-10-07T15:07:23.212Z,48.52
2022-10-07T15:09:50.948Z,48.68
2022-10-07T15:12:18.710Z,48.86
2022-10-07T15:14:46.257Z,49.18
2022-10-07T15:17:15.079Z,48.69
2022-10-07T15:19:42.758Z,48.89
2022-10-07T15:22:10.553Z,49.57
2022-10-07T15:24:38.942Z,49.77
2022-10-07T15:27:10.048Z,49.71
2022-10-07T15:29:38.240Z,49.54
2022-10-07T15:32:07.608Z,50.23
2022-10-07T15:34:35.348Z,50.06
2022-10-07T15:37:03.047Z,50.44
2022-10-07T15:39:30.861Z,50.82
2022-10-07T15:41:58.516Z,50.92
2022-10-07T15:44:27.312Z,51.21
2022-10-07T15:46:55.145Z,51.10
2022-10-07T15:49:22.735Z,51.26
2022-10-07T15:51:50.695Z,51.46
2022-10-07T15:54:18.667Z,51.46
2022-10-07T15:56:50.277Z,51.55
2022-10-07T15:59:18.081Z,51.99
2022-10-07T16:01:45.878Z,52.09
2022-10-07T16:04:14.009Z,52.35
2022-10-07T16:06:42.517Z,52.45
2022-10-07T16:09:10.557Z,52.71
2022-10-07T16:11:38.192Z,52.97
2022-10-07T16:14:05.977Z,53.14
2022-10-07T16:16:33.759Z,53.41
2022-10-07T16:19:02.077Z,53.38
2022-10-07T16:21:32.976Z,53.69
2022-10-07T16:24:06.675Z,53.68
2022-10-07T16:26:36.017Z,53.95
2022-10-07T16:29:25.403Z,53.97
2022-10-07T16:31:58.230Z,54.28
2022-10-07T16:34:28.501Z,54.41
2022-10-07T16:36:57.694Z,54.70
2022-10-07T16:39:25.750Z,54.92
2022-10-07T16:41:54.198Z,55.09
2022-10-07T16:44:22.427Z,55.41
2022-10-07T16:46:50.330Z,55.39
2022-10-07T16:49:18.742Z,55.59
2022-10-07T16:51:46.717Z,55.83
2022-10-07T16:54:17.839Z,56.19
2022-10-07T16:56:49.388Z,55.74
2022-10-07T16:59:23.921Z,56.59
2022-10-07T17:01:55.130Z,56.65
2022-10-07T17:04:24.750Z,57.07
2022-10-07T17:06:53.450Z,57.24
2022-10-07T17:09:24.662Z,57.14
2022-10-07T17:11:52.770Z,57.29
2022-10-07T17:14:21.679Z,57.49
2022-10-07T17:16:56.988Z,57.29
2022-10-07T17:19:27.257Z,57.70
2022-10-07T17:21:56.120Z,57.96
2022-10-07T17:24:24.082Z,58.22
2022-10-07T17:26:53.194Z,58.23
2022-10-07T17:29:23.571Z,58.20
2022-10-07T17:31:53.048Z,58.21
2022-10-07T17:34:21.685Z,58.46
2022-10-07T17:36:50.464Z,58.37
2022-10-07T17:39:19.443Z,58.62
2022-10-07T17:41:48.066Z,58.81
2022-10-07T17:44:15.904Z,58.88
2022-10-07T17:46:43.769Z,58.94
2022-10-07T17:49:13.561Z,58.86
2022-10-07T17:51:43.468Z,59.03
2022-10-07T17:54:13.795Z,59.13
2022-10-07T17:56:46.263Z,59.18
2022-10-07T17:59:19.681Z,59.15
2022-10-07T18:01:48.782Z,59.51
2022-10-07T18:04:24.699Z,59.33
2022-10-07T18:06:53.321Z,59.36
2022-10-07T18:09:25.550Z,59.57
2022-10-07T18:12:13.030Z,59.63
2022-10-07T18:14:59.317Z,59.81
2022-10-07T18:17:28.770Z,59.83
2022-10-07T18:20:01.511Z,59.91
2022-10-07T18:22:31.601Z,60.16
2022-10-07T18:24:59.831Z,60.02
2022-10-07T18:27:34.099Z,60.17
2022-10-07T18:30:04.842Z,60.27
2022-10-07T18:32:32.481Z,60.07
2022-10-07T18:35:00.278Z,60.12
2022-10-07T18:37:28.103Z,60.22
2022-10-07T18:39:55.979Z,60.17
2022-10-07T18:42:23.664Z,60.37
2022-10-07T18:44:52.492Z,60.58
2022-10-07T18:47:20.523Z,60.60
2022-10-07T18:49:48.434Z,60.75
2022-10-07T18:52:17.078Z,60.71
2022-10-07T18:54:49.119Z,60.70
2022-10-07T18:57:16.914Z,60.78
2022-10-07T18:59:55.352Z,60.86
2022-10-07T19:02:23.474Z,61.03
2022-10-07T19:04:51.279Z,60.89
2022-10-07T19:07:19.700Z,61.01
2022-10-07T19:10:12.600Z,61.01
2022-10-07T19:12:58.953Z,61.05
2022-10-07T19:15:55.503Z,61.15
2022-10-07T19:18:28.572Z,61.10
2022-10-07T19:21:01.196Z,61.13
2022-10-07T19:23:29.742Z,61.11
2022-10-07T19:26:05.478Z,61.19
2022-10-07T19:28:39.023Z,61.46
2022-10-07T19:31:23.959Z,61.81
2022-10-07T19:33:58.060Z,61.67
2022-10-07T19:36:28.737Z,61.64
2022-10-07T19:38:58.669Z,61.81
2022-10-07T19:41:31.962Z,61.71
2022-10-07T19:44:00.613Z,61.91
2022-10-07T19:46:30.734Z,62.00
2022-10-07T19:49:00.251Z,62.02
2022-10-07T19:51:33.193Z,61.96
2022-10-07T19:54:12.380Z,61.87
2022-10-07T19:56:57.736Z,62.16
2022-10-07T19:59:30.922Z,62.30
2022-10-07T20:02:01.335Z,62.26
2022-10-07T20:04:34.071Z,62.55
2022-10-07T20:07:01.842Z,62.46
2022-10-07T20:09:29.399Z,62.46
2022-10-07T20:11:57.257Z,62.41
2022-10-07T20:14:28.442Z,62.52
2022-10-07T20:16:56.325Z,62.39
2022-10-07T20:19:27.013Z,62.66
2022-10-07T20:21:54.862Z,62.60
2022-10-07T20:24:22.851Z,62.86
2022-10-07T20:26:50.624Z,62.78
2022-10-07T20:29:25.701Z,63.01
2022-10-07T20:32:12.402Z,63.03
2022-10-07T20:34:40.879Z,63.03
2022-10-07T20:37:08.530Z,62.87
2022-10-07T20:39:55.062Z,63.12
2022-10-07T20:42:38.088Z,62.91
2022-10-07T20:45:12.116Z,62.91
2022-10-07T20:47:46.582Z,62.95
2022-10-07T20:50:38.730Z,63.14
2022-10-07T20:53:06.539Z,63.12
2022-10-07T20:55:41.513Z,63.21
2022-10-07T20:58:09.663Z,63.24
2022-10-07T21:00:37.447Z,63.09
2022-10-07T21:03:05.339Z,63.02
2022-10-07T21:05:39.499Z,63.24
2022-10-07T21:08:07.499Z,63.31
2022-10-07T21:10:35.206Z,63.62
2022-10-07T21:13:09.897Z,63.50
2022-10-07T21:15:39.550Z,63.60
2022-10-07T21:18:07.700Z,63.65
2022-10-07T21:20:36.820Z,63.73
2022-10-07T21:23:04.749Z,63.64
2022-10-07T21:25:32.811Z,63.88
2022-10-07T21:28:00.562Z,63.83
2022-10-07T21:30:29.543Z,63.69
2022-10-07T21:32:58.839Z,63.75
2022-10-07T21:35:26.570Z,63.84
2022-10-07T21:37:54.428Z,63.79
2022-10-07T21:40:24.995Z,63.80
2022-10-07T21:42:57.989Z,63.98
2022-10-07T21:45:27.972Z,64.23
2022-10-07T21:47:55.709Z,64.09
2022-10-07T21:50:23.479Z,64.13
2022-10-07T21:52:51.459Z,64.08
2022-10-07T21:55:19.166Z,64.18
2022-10-07T21:58:17.950Z,64.23
2022-10-07T22:00:51.743Z,64.16
2022-10-07T22:03:19.759Z,64.19
2022-10-07T22:05:50.412Z,64.37
2022-10-07T22:08:36.675Z,64.36
2022-10-07T22:11:18.340Z,64.21
2022-10-07T22:13:55.327Z,64.37
2022-10-07T22:16:23.126Z,64.45
2022-10-07T22:18:53.806Z,64.50
2022-10-07T22:21:27.861Z,64.66
2022-10-07T22:24:05.174Z,64.81
2022-10-07T22:26:40.716Z,64.65
2022-10-07T22:29:13.320Z,64.85
2022-10-07T22:31:41.128Z,64.90
2022-10-07T22:34:09.210Z,65.13
2022-10-07T22:36:37.624Z,65.51
2022-10-07T22:39:12.250Z,65.39
2022-10-07T22:41:40.583Z,65.39
2022-10-07T22:44:34.490Z,65.08
2022-10-07T22:47:02.611Z,65.04
2022-10-07T22:49:32.442Z,65.06
2022-10-07T22:52:00.427Z,64.96
2022-10-07T22:54:28.771Z,65.10
2022-10-07T22:57:21.101Z,65.07
2022-10-07T22:59:49.215Z,65.19
2022-10-07T23:02:42.578Z,65.14
2022-10-07T23:05:11.045Z,65.23
2022-10-07T23:07:40.810Z,65.21
2022-10-07T23:10:33.472Z,65.40
2022-10-07T23:13:03.789Z,65.43
2022-10-07T23:15:31.753Z,65.52
2022-10-07T23:18:24.099Z,65.42
2022-10-07T23:21:22.606Z,65.43
2022-10-07T23:23:52.935Z,65.49
2022-10-07T23:26:23.449Z,65.47
2022-10-07T23:28:52.492Z,65.51
2022-10-07T23:31:22.794Z,65.42
2022-10-07T23:33:54.838Z,65.29
2022-10-07T23:36:23.789Z,65.41
2022-10-07T23:38:52.646Z,65.39
2022-10-07T23:41:25.965Z,65.56
2022-10-07T23:43:59.084Z,65.46
2022-10-07T23:46:28.451Z,65.64
2022-10-07T23:48:56.401Z,65.53
2022-10-07T23:51:27.351Z,65.63
2022-10-07T23:54:00.034Z,65.63
2022-10-07T23:56:28.450Z,65.81
2022-10-07T23:58:56.165Z,65.96
